sensor_id;sensor_type;location;lat;lon;timestamp;temperature;humidity
6291;DHT22;3178;48.730;8.990;2022-08-14T00:00:24;16.50;99.90
6291;DHT22;3178;48.730;8.990;2022-08-14T00:02:50;16.50;99.90
6291;DHT22;3178;48.730;8.990;2022-08-14T00:05:19;16.40;99.90
6291;DHT22;3178;48.730;8.990;2022-08-14T00:07:45;16.40;99.90
6291;DHT22;3178;48.730;8.990;2022-08-14T00:10:17;16.50;99.90
6291;DHT22;3178;48.730;8.990;2022-08-14T00:12:52;16.40;99.90
6291;DHT22;3178;48.730;8.990;2022-08-14T00:15:25;16.30;99.90
6291;DHT22;3178;48.730;8.990;2022-08-14T00:17:52;16.20;99.90
6291;DHT22;3178;48.730;8.990;2022-08-14T00:20:21;16.10;99.90
6291;DHT22;3178;48.730;8.990;2022-08-14T00:22:47;16.10;99.90
6291;DHT22;3178;48.730;8.990;2022-08-14T00:25:12;16.00;99.90
6291;DHT22;3178;48.730;8.990;2022-08-14T00:27:38;15.90;99.90
6291;DHT22;3178;48.730;8.990;2022-08-14T00:30:09;15.90;99.90
6291;DHT22;3178;48.730;8.990;2022-08-14T00:32:36;15.90;99.90
6291;DHT22;3178;48.730;8.990;2022-08-14T00:35:06;16.00;99.90
6291;DHT22;3178;48.730;8.990;2022-08-14T00:37:33;15.90;99.90
6291;DHT22;3178;48.730;8.990;2022-08-14T00:39:59;15.90;99.90
6291;DHT22;3178;48.730;8.990;2022-08-14T00:42:25;15.80;99.90
6291;DHT22;3178;48.730;8.990;2022-08-14T00:44:52;15.70;99.90
6291;DHT22;3178;48.730;8.990;2022-08-14T00:47:19;15.70;99.90
6291;DHT22;3178;48.730;8.990;2022-08-14T00:49:47;15.70;99.90
6291;DHT22;3178;48.730;8.990;2022-08-14T00:52:15;15.70;99.90
6291;DHT22;3178;48.730;8.990;2022-08-14T00:54:42;15.80;99.90
6291;DHT22;3178;48.730;8.990;2022-08-14T00:57:08;15.50;99.90
6291;DHT22;3178;48.730;8.990;2022-08-14T00:59:34;15.50;99.90
6291;DHT22;3178;48.730;8.990;2022-08-14T01:02:02;15.50;99.90
6291;DHT22;3178;48.730;8.990;2022-08-14T01:04:32;15.40;99.90
6291;DHT22;3178;48.730;8.990;2022-08-14T01:06:58;15.40;99.90
6291;DHT22;3178;48.730;8.990;2022-08-14T01:09:25;15.50;99.90
6291;DHT22;3178;48.730;8.990;2022-08-14T01:11:52;15.40;99.90
6291;DHT22;3178;48.730;8.990;2022-08-14T01:14:18;15.40;99.90
6291;DHT22;3178;48.730;8.990;2022-08-14T01:16:46;15.30;99.90
6291;DHT22;3178;48.730;8.990;2022-08-14T01:19:12;15.20;99.90
6291;DHT22;3178;48.730;8.990;2022-08-14T01:21:57;15.10;99.90
6291;DHT22;3178;48.730;8.990;2022-08-14T01:24:23;15.30;99.90
6291;DHT22;3178;48.730;8.990;2022-08-14T01:26:49;15.30;99.90
6291;DHT22;3178;48.730;8.990;2022-08-14T01:29:16;15.10;99.90
6291;DHT22;3178;48.730;8.990;2022-08-14T01:31:44;15.20;99.90
6291;DHT22;3178;48.730;8.990;2022-08-14T01:34:19;15.10;99.90
6291;DHT22;3178;48.730;8.990;2022-08-14T01:36:48;15.10;99.90
6291;DHT22;3178;48.730;8.990;2022-08-14T01:39:15;15.10;99.90
6291;DHT22;3178;48.730;8.990;2022-08-14T01:41:44;15.20;99.90
6291;DHT22;3178;48.730;8.990;2022-08-14T01:44:22;15.10;99.90
6291;DHT22;3178;48.730;8.990;2022-08-14T01:46:49;15.10;99.90
6291;DHT22;3178;48.730;8.990;2022-08-14T01:49:19;15.10;99.90
6291;DHT22;3178;48.730;8.990;2022-08-14T01:51:45;15.10;99.90
6291;DHT22;3178;48.730;8.990;2022-08-14T01:54:14;15.10;99.90
6291;DHT22;3178;48.730;8.990;2022-08-14T01:56:41;15.10;99.90
6291;DHT22;3178;48.730;8.990;2022-08-14T02:01:40;15.00;99.90
6291;DHT22;3178;48.730;8.990;2022-08-14T02:04:08;14.90;99.90
6291;DHT22;3178;48.730;8.990;2022-08-14T02:06:35;15.00;99.90
6291;DHT22;3178;48.730;8.990;2022-08-14T02:09:06;14.90;99.90
6291;DHT22;3178;48.730;8.990;2022-08-14T02:11:32;14.80;99.90
6291;DHT22;3178;48.730;8.990;2022-08-14T02:14:00;14.80;99.90
6291;DHT22;3178;48.730;8.990;2022-08-14T02:16:28;14.70;99.90
6291;DHT22;3178;48.730;8.990;2022-08-14T02:18:57;14.70;99.90
6291;DHT22;3178;48.730;8.990;2022-08-14T02:21:23;14.70;99.90
6291;DHT22;3178;48.730;8.990;2022-08-14T02:23:50;14.60;99.90
6291;DHT22;3178;48.730;8.990;2022-08-14T02:26:25;14.50;99.90
6291;DHT22;3178;48.730;8.990;2022-08-14T02:28:55;14.60;99.90
6291;DHT22;3178;48.730;8.990;2022-08-14T02:31:25;14.60;99.90
6291;DHT22;3178;48.730;8.990;2022-08-14T02:33:56;14.50;99.90
6291;DHT22;3178;48.730;8.990;2022-08-14T02:36:22;14.50;99.90
6291;DHT22;3178;48.730;8.990;2022-08-14T02:38:48;14.50;99.90
6291;DHT22;3178;48.730;8.990;2022-08-14T02:41:14;14.40;99.90
6291;DHT22;3178;48.730;8.990;2022-08-14T02:43:40;14.50;99.90
6291;DHT22;3178;48.730;8.990;2022-08-14T02:46:07;14.40;99.90
6291;DHT22;3178;48.730;8.990;2022-08-14T02:48:39;14.30;99.90
6291;DHT22;3178;48.730;8.990;2022-08-14T02:51:11;14.30;99.90
6291;DHT22;3178;48.730;8.990;2022-08-14T02:53:42;14.20;99.90
6291;DHT22;3178;48.730;8.990;2022-08-14T02:56:09;14.20;99.90
6291;DHT22;3178;48.730;8.990;2022-08-14T02:58:39;14.20;99.90
6291;DHT22;3178;48.730;8.990;2022-08-14T03:01:06;14.20;99.90
6291;DHT22;3178;48.730;8.990;2022-08-14T03:03:34;14.10;99.90
6291;DHT22;3178;48.730;8.990;2022-08-14T03:06:04;14.10;99.90
6291;DHT22;3178;48.730;8.990;2022-08-14T03:08:31;14.10;99.90
6291;DHT22;3178;48.730;8.990;2022-08-14T03:11:02;14.10;99.90
6291;DHT22;3178;48.730;8.990;2022-08-14T03:13:43;14.00;99.90
6291;DHT22;3178;48.730;8.990;2022-08-14T03:16:15;14.00;99.90
6291;DHT22;3178;48.730;8.990;2022-08-14T03:18:43;14.00;99.90
6291;DHT22;3178;48.730;8.990;2022-08-14T03:21:12;14.00;99.90
6291;DHT22;3178;48.730;8.990;2022-08-14T03:23:40;14.00;99.90
6291;DHT22;3178;48.730;8.990;2022-08-14T03:26:10;13.90;99.90
6291;DHT22;3178;48.730;8.990;2022-08-14T03:28:37;13.90;99.90
6291;DHT22;3178;48.730;8.990;2022-08-14T03:31:07;13.90;99.90
6291;DHT22;3178;48.730;8.990;2022-08-14T03:33:33;14.10;99.90
6291;DHT22;3178;48.730;8.990;2022-08-14T03:36:02;13.90;99.90
6291;DHT22;3178;48.730;8.990;2022-08-14T03:38:29;13.80;99.90
6291;DHT22;3178;48.730;8.990;2022-08-14T03:40:55;13.80;99.90
6291;DHT22;3178;48.730;8.990;2022-08-14T03:43:21;14.00;99.90
6291;DHT22;3178;48.730;8.990;2022-08-14T03:45:46;13.90;99.90
6291;DHT22;3178;48.730;8.990;2022-08-14T03:48:15;13.90;99.90
6291;DHT22;3178;48.730;8.990;2022-08-14T03:50:44;13.90;99.90
6291;DHT22;3178;48.730;8.990;2022-08-14T03:53:10;13.90;99.90
6291;DHT22;3178;48.730;8.990;2022-08-14T03:55:37;13.80;99.90
6291;DHT22;3178;48.730;8.990;2022-08-14T03:58:06;13.90;99.90
6291;DHT22;3178;48.730;8.990;2022-08-14T04:00:33;13.80;99.90
6291;DHT22;3178;48.730;8.990;2022-08-14T04:02:59;13.80;99.90
6291;DHT22;3178;48.730;8.990;2022-08-14T04:05:25;13.80;99.90
6291;DHT22;3178;48.730;8.990;2022-08-14T04:07:50;13.80;99.90
6291;DHT22;3178;48.730;8.990;2022-08-14T04:10:16;13.80;99.90
6291;DHT22;3178;48.730;8.990;2022-08-14T04:12:42;13.80;99.90
6291;DHT22;3178;48.730;8.990;2022-08-14T04:15:08;13.80;99.90
6291;DHT22;3178;48.730;8.990;2022-08-14T04:17:34;13.80;99.90
6291;DHT22;3178;48.730;8.990;2022-08-14T04:20:00;13.90;99.90
6291;DHT22;3178;48.730;8.990;2022-08-14T04:22:32;13.90;99.90
6291;DHT22;3178;48.730;8.990;2022-08-14T04:24:59;13.90;99.90
6291;DHT22;3178;48.730;8.990;2022-08-14T04:27:25;14.00;99.90
6291;DHT22;3178;48.730;8.990;2022-08-14T04:29:52;14.00;99.90
6291;DHT22;3178;48.730;8.990;2022-08-14T04:32:18;14.00;99.90
6291;DHT22;3178;48.730;8.990;2022-08-14T04:34:46;14.00;99.90
6291;DHT22;3178;48.730;8.990;2022-08-14T04:37:12;14.00;99.90
6291;DHT22;3178;48.730;8.990;2022-08-14T04:39:56;14.00;99.90
6291;DHT22;3178;48.730;8.990;2022-08-14T04:42:41;14.00;99.90
6291;DHT22;3178;48.730;8.990;2022-08-14T04:45:26;14.10;99.90
6291;DHT22;3178;48.730;8.990;2022-08-14T04:47:59;14.10;99.90
6291;DHT22;3178;48.730;8.990;2022-08-14T04:53:04;14.10;99.90
6291;DHT22;3178;48.730;8.990;2022-08-14T04:55:29;14.20;99.90
6291;DHT22;3178;48.730;8.990;2022-08-14T04:57:55;14.20;99.90
6291;DHT22;3178;48.730;8.990;2022-08-14T05:00:21;14.30;99.90
6291;DHT22;3178;48.730;8.990;2022-08-14T05:02:48;14.40;99.90
6291;DHT22;3178;48.730;8.990;2022-08-14T05:05:14;14.40;99.90
6291;DHT22;3178;48.730;8.990;2022-08-14T05:07:39;14.50;99.90
6291;DHT22;3178;48.730;8.990;2022-08-14T05:10:07;14.50;99.90
6291;DHT22;3178;48.730;8.990;2022-08-14T05:12:33;14.60;99.90
6291;DHT22;3178;48.730;8.990;2022-08-14T05:14:58;14.70;99.90
6291;DHT22;3178;48.730;8.990;2022-08-14T05:17:25;14.80;99.90
6291;DHT22;3178;48.730;8.990;2022-08-14T05:19:51;14.90;99.90
6291;DHT22;3178;48.730;8.990;2022-08-14T05:22:18;14.90;99.90
6291;DHT22;3178;48.730;8.990;2022-08-14T05:24:45;15.10;99.90
6291;DHT22;3178;48.730;8.990;2022-08-14T05:27:12;15.10;99.90
6291;DHT22;3178;48.730;8.990;2022-08-14T05:29:38;15.20;99.90
6291;DHT22;3178;48.730;8.990;2022-08-14T05:32:05;15.40;99.90
6291;DHT22;3178;48.730;8.990;2022-08-14T05:34:32;15.40;99.90
6291;DHT22;3178;48.730;8.990;2022-08-14T05:36:58;15.40;99.90
6291;DHT22;3178;48.730;8.990;2022-08-14T05:39:25;15.40;99.90
6291;DHT22;3178;48.730;8.990;2022-08-14T05:41:50;15.40;99.90
6291;DHT22;3178;48.730;8.990;2022-08-14T05:44:16;15.40;99.90
6291;DHT22;3178;48.730;8.990;2022-08-14T05:46:41;15.40;99.90
6291;DHT22;3178;48.730;8.990;2022-08-14T05:49:07;15.60;99.90
6291;DHT22;3178;48.730;8.990;2022-08-14T05:51:32;15.90;99.90
6291;DHT22;3178;48.730;8.990;2022-08-14T05:53:59;15.80;99.90
6291;DHT22;3178;48.730;8.990;2022-08-14T05:56:24;16.00;99.90
6291;DHT22;3178;48.730;8.990;2022-08-14T05:58:51;16.20;99.90
6291;DHT22;3178;48.730;8.990;2022-08-14T06:01:16;16.50;99.90
6291;DHT22;3178;48.730;8.990;2022-08-14T06:03:42;16.70;99.90
6291;DHT22;3178;48.730;8.990;2022-08-14T06:06:07;16.90;99.90
6291;DHT22;3178;48.730;8.990;2022-08-14T06:08:33;17.30;99.90
6291;DHT22;3178;48.730;8.990;2022-08-14T06:11:01;17.50;99.90
6291;DHT22;3178;48.730;8.990;2022-08-14T06:13:33;17.70;99.90
6291;DHT22;3178;48.730;8.990;2022-08-14T06:15:59;17.70;99.90
6291;DHT22;3178;48.730;8.990;2022-08-14T06:18:25;18.00;99.90
6291;DHT22;3178;48.730;8.990;2022-08-14T06:20:51;18.30;99.90
6291;DHT22;3178;48.730;8.990;2022-08-14T06:23:17;18.50;99.90
6291;DHT22;3178;48.730;8.990;2022-08-14T06:25:42;18.70;99.90
6291;DHT22;3178;48.730;8.990;2022-08-14T06:28:18;19.00;99.90
6291;DHT22;3178;48.730;8.990;2022-08-14T06:30:45;19.30;99.90
6291;DHT22;3178;48.730;8.990;2022-08-14T06:33:11;19.60;99.90
6291;DHT22;3178;48.730;8.990;2022-08-14T06:35:37;20.00;99.90
6291;DHT22;3178;48.730;8.990;2022-08-14T06:38:03;20.20;99.90
6291;DHT22;3178;48.730;8.990;2022-08-14T06:40:33;20.60;99.90
6291;DHT22;3178;48.730;8.990;2022-08-14T06:43:01;21.00;99.90
6291;DHT22;3178;48.730;8.990;2022-08-14T06:45:27;21.40;99.90
6291;DHT22;3178;48.730;8.990;2022-08-14T06:47:53;21.50;99.90
6291;DHT22;3178;48.730;8.990;2022-08-14T06:50:21;21.70;99.90
6291;DHT22;3178;48.730;8.990;2022-08-14T06:52:47;21.90;99.90
6291;DHT22;3178;48.730;8.990;2022-08-14T06:55:14;22.00;99.90
6291;DHT22;3178;48.730;8.990;2022-08-14T06:57:44;22.00;99.90
6291;DHT22;3178;48.730;8.990;2022-08-14T07:00:16;22.40;99.90
6291;DHT22;3178;48.730;8.990;2022-08-14T07:02:42;22.60;99.90
6291;DHT22;3178;48.730;8.990;2022-08-14T07:05:26;22.70;98.30
6291;DHT22;3178;48.730;8.990;2022-08-14T07:08:20;23.10;97.20
6291;DHT22;3178;48.730;8.990;2022-08-14T07:10:51;23.40;97.00
6291;DHT22;3178;48.730;8.990;2022-08-14T07:13:18;23.70;95.50
6291;DHT22;3178;48.730;8.990;2022-08-14T07:15:48;23.90;94.90
6291;DHT22;3178;48.730;8.990;2022-08-14T07:18:22;24.20;93.60
6291;DHT22;3178;48.730;8.990;2022-08-14T07:20:48;24.70;93.50
6291;DHT22;3178;48.730;8.990;2022-08-14T07:23:13;25.00;91.10
6291;DHT22;3178;48.730;8.990;2022-08-14T07:25:40;25.30;91.20
6291;DHT22;3178;48.730;8.990;2022-08-14T07:28:12;25.60;91.40
6291;DHT22;3178;48.730;8.990;2022-08-14T07:30:38;26.00;89.50
6291;DHT22;3178;48.730;8.990;2022-08-14T07:33:04;26.30;84.50
6291;DHT22;3178;48.730;8.990;2022-08-14T07:35:31;26.50;83.10
6291;DHT22;3178;48.730;8.990;2022-08-14T07:37:57;26.60;80.20
6291;DHT22;3178;48.730;8.990;2022-08-14T07:40:23;26.70;75.90
6291;DHT22;3178;48.730;8.990;2022-08-14T07:42:49;26.90;76.40
6291;DHT22;3178;48.730;8.990;2022-08-14T07:45:15;26.80;73.40
6291;DHT22;3178;48.730;8.990;2022-08-14T07:47:41;26.90;74.20
6291;DHT22;3178;48.730;8.990;2022-08-14T07:52:33;27.40;72.40
6291;DHT22;3178;48.730;8.990;2022-08-14T07:54:59;27.50;70.90
6291;DHT22;3178;48.730;8.990;2022-08-14T07:57:25;27.60;70.10
6291;DHT22;3178;48.730;8.990;2022-08-14T07:59:52;27.70;69.10
6291;DHT22;3178;48.730;8.990;2022-08-14T08:02:18;27.80;68.30
6291;DHT22;3178;48.730;8.990;2022-08-14T08:04:45;27.80;67.80
6291;DHT22;3178;48.730;8.990;2022-08-14T08:07:12;27.90;68.00
6291;DHT22;3178;48.730;8.990;2022-08-14T08:09:42;28.20;67.20
6291;DHT22;3178;48.730;8.990;2022-08-14T08:12:08;28.40;67.20
6291;DHT22;3178;48.730;8.990;2022-08-14T08:14:36;28.30;68.50
6291;DHT22;3178;48.730;8.990;2022-08-14T08:17:03;28.20;65.20
6291;DHT22;3178;48.730;8.990;2022-08-14T08:19:29;28.30;66.90
6291;DHT22;3178;48.730;8.990;2022-08-14T08:21:57;28.70;66.00
6291;DHT22;3178;48.730;8.990;2022-08-14T08:24:23;28.80;64.10
6291;DHT22;3178;48.730;8.990;2022-08-14T08:26:49;28.80;63.70
6291;DHT22;3178;48.730;8.990;2022-08-14T08:29:19;28.70;64.00
6291;DHT22;3178;48.730;8.990;2022-08-14T08:31:49;28.80;63.70
6291;DHT22;3178;48.730;8.990;2022-08-14T08:34:16;28.80;65.70
6291;DHT22;3178;48.730;8.990;2022-08-14T08:36:42;29.00;62.20
6291;DHT22;3178;48.730;8.990;2022-08-14T08:39:09;28.90;60.90
6291;DHT22;3178;48.730;8.990;2022-08-14T08:41:44;28.70;61.50
6291;DHT22;3178;48.730;8.990;2022-08-14T08:44:10;29.00;61.70
6291;DHT22;3178;48.730;8.990;2022-08-14T08:46:36;29.10;61.40
6291;DHT22;3178;48.730;8.990;2022-08-14T08:49:02;29.40;61.00
6291;DHT22;3178;48.730;8.990;2022-08-14T08:54:07;29.30;59.60
6291;DHT22;3178;48.730;8.990;2022-08-14T08:56:49;29.30;59.60
6291;DHT22;3178;48.730;8.990;2022-08-14T08:59:26;28.80;59.90
6291;DHT22;3178;48.730;8.990;2022-08-14T09:04:22;29.00;59.90
6291;DHT22;3178;48.730;8.990;2022-08-14T09:06:48;28.90;61.10
6291;DHT22;3178;48.730;8.990;2022-08-14T09:09:18;29.00;59.10
6291;DHT22;3178;48.730;8.990;2022-08-14T09:11:44;29.00;59.60
6291;DHT22;3178;48.730;8.990;2022-08-14T09:14:10;29.20;59.50
6291;DHT22;3178;48.730;8.990;2022-08-14T09:16:35;29.30;58.90
6291;DHT22;3178;48.730;8.990;2022-08-14T09:19:02;29.50;59.30
6291;DHT22;3178;48.730;8.990;2022-08-14T09:21:28;29.60;58.60
6291;DHT22;3178;48.730;8.990;2022-08-14T09:23:55;29.70;58.10
6291;DHT22;3178;48.730;8.990;2022-08-14T09:26:20;29.40;57.90
6291;DHT22;3178;48.730;8.990;2022-08-14T09:28:46;29.20;58.50
6291;DHT22;3178;48.730;8.990;2022-08-14T09:31:13;28.90;59.50
6291;DHT22;3178;48.730;8.990;2022-08-14T09:33:50;28.80;59.50
6291;DHT22;3178;48.730;8.990;2022-08-14T09:36:39;29.10;59.80
6291;DHT22;3178;48.730;8.990;2022-08-14T09:42:34;30.10;58.30
6291;DHT22;3178;48.730;8.990;2022-08-14T09:45:20;30.20;56.90
6291;DHT22;3178;48.730;8.990;2022-08-14T09:47:57;30.40;57.70
6291;DHT22;3178;48.730;8.990;2022-08-14T09:50:28;30.50;56.80
6291;DHT22;3178;48.730;8.990;2022-08-14T09:53:05;30.70;56.70
6291;DHT22;3178;48.730;8.990;2022-08-14T09:55:33;30.90;55.70
6291;DHT22;3178;48.730;8.990;2022-08-14T09:58:14;30.80;55.80
6291;DHT22;3178;48.730;8.990;2022-08-14T10:00:49;30.40;56.00
6291;DHT22;3178;48.730;8.990;2022-08-14T10:03:27;30.70;57.30
6291;DHT22;3178;48.730;8.990;2022-08-14T10:09:24;30.90;55.80
6291;DHT22;3178;48.730;8.990;2022-08-14T10:11:27;30.70;55.70
6291;DHT22;3178;48.730;8.990;2022-08-14T10:13:58;30.50;56.50
6291;DHT22;3178;48.730;8.990;2022-08-14T10:16:28;30.40;56.70
6291;DHT22;3178;48.730;8.990;2022-08-14T10:19:21;30.20;57.20
6291;DHT22;3178;48.730;8.990;2022-08-14T10:22:04;30.20;56.30
6291;DHT22;3178;48.730;8.990;2022-08-14T10:24:38;30.00;56.40
6291;DHT22;3178;48.730;8.990;2022-08-14T10:27:14;30.20;58.00
6291;DHT22;3178;48.730;8.990;2022-08-14T10:29:42;30.40;55.80
6291;DHT22;3178;48.730;8.990;2022-08-14T10:32:09;30.40;55.60
6291;DHT22;3178;48.730;8.990;2022-08-14T10:34:37;30.20;55.20
6291;DHT22;3178;48.730;8.990;2022-08-14T10:37:09;30.30;55.40
6291;DHT22;3178;48.730;8.990;2022-08-14T10:39:36;30.50;56.40
6291;DHT22;3178;48.730;8.990;2022-08-14T10:42:05;30.50;56.10
6291;DHT22;3178;48.730;8.990;2022-08-14T10:44:34;30.60;54.60
6291;DHT22;3178;48.730;8.990;2022-08-14T10:47:05;30.60;56.20
6291;DHT22;3178;48.730;8.990;2022-08-14T10:49:36;30.80;55.40
6291;DHT22;3178;48.730;8.990;2022-08-14T10:52:09;30.50;55.30
6291;DHT22;3178;48.730;8.990;2022-08-14T10:54:40;30.70;55.30
6291;DHT22;3178;48.730;8.990;2022-08-14T10:57:21;30.80;55.90
6291;DHT22;3178;48.730;8.990;2022-08-14T11:02:27;31.00;56.30
6291;DHT22;3178;48.730;8.990;2022-08-14T11:07:33;30.80;53.20
6291;DHT22;3178;48.730;8.990;2022-08-14T11:10:07;30.50;49.80
6291;DHT22;3178;48.730;8.990;2022-08-14T11:12:45;30.50;50.60
6291;DHT22;3178;48.730;8.990;2022-08-14T11:15:14;30.70;51.50
6291;DHT22;3178;48.730;8.990;2022-08-14T11:17:41;30.80;49.50
6291;DHT22;3178;48.730;8.990;2022-08-14T11:20:09;30.80;50.30
6291;DHT22;3178;48.730;8.990;2022-08-14T11:22:37;30.80;49.10
6291;DHT22;3178;48.730;8.990;2022-08-14T11:25:06;30.80;49.30
6291;DHT22;3178;48.730;8.990;2022-08-14T11:27:33;30.70;50.30
6291;DHT22;3178;48.730;8.990;2022-08-14T11:30:08;30.90;49.90
6291;DHT22;3178;48.730;8.990;2022-08-14T11:32:34;30.90;49.10
6291;DHT22;3178;48.730;8.990;2022-08-14T11:35:00;30.90;50.70
6291;DHT22;3178;48.730;8.990;2022-08-14T11:37:27;30.90;49.90
6291;DHT22;3178;48.730;8.990;2022-08-14T11:39:54;31.00;49.80
6291;DHT22;3178;48.730;8.990;2022-08-14T11:42:25;31.10;50.50
6291;DHT22;3178;48.730;8.990;2022-08-14T11:44:52;31.20;51.30
6291;DHT22;3178;48.730;8.990;2022-08-14T11:47:20;31.40;48.90
6291;DHT22;3178;48.730;8.990;2022-08-14T11:49:46;31.40;49.60
6291;DHT22;3178;48.730;8.990;2022-08-14T11:52:15;31.40;49.10
6291;DHT22;3178;48.730;8.990;2022-08-14T11:54:42;31.50;49.40
6291;DHT22;3178;48.730;8.990;2022-08-14T11:57:17;31.60;49.30
6291;DHT22;3178;48.730;8.990;2022-08-14T11:59:44;31.70;47.90
6291;DHT22;3178;48.730;8.990;2022-08-14T12:02:14;31.50;48.70
6291;DHT22;3178;48.730;8.990;2022-08-14T12:04:50;31.50;48.80
6291;DHT22;3178;48.730;8.990;2022-08-14T12:07:17;31.50;48.60
6291;DHT22;3178;48.730;8.990;2022-08-14T12:09:44;31.70;49.60
6291;DHT22;3178;48.730;8.990;2022-08-14T12:12:21;31.80;48.20
6291;DHT22;3178;48.730;8.990;2022-08-14T12:14:58;31.90;47.00
6291;DHT22;3178;48.730;8.990;2022-08-14T12:17:26;31.70;47.40
6291;DHT22;3178;48.730;8.990;2022-08-14T12:19:57;31.70;46.80
6291;DHT22;3178;48.730;8.990;2022-08-14T12:22:39;31.50;46.40
6291;DHT22;3178;48.730;8.990;2022-08-14T12:25:08;31.40;49.10
6291;DHT22;3178;48.730;8.990;2022-08-14T12:27:49;31.50;49.80
6291;DHT22;3178;48.730;8.990;2022-08-14T12:30:33;31.90;49.00
6291;DHT22;3178;48.730;8.990;2022-08-14T12:33:00;32.10;48.50
6291;DHT22;3178;48.730;8.990;2022-08-14T12:38:02;32.00;49.00
6291;DHT22;3178;48.730;8.990;2022-08-14T12:40:28;31.80;47.20
6291;DHT22;3178;48.730;8.990;2022-08-14T12:43:05;31.70;46.70
6291;DHT22;3178;48.730;8.990;2022-08-14T12:45:33;31.60;47.50
6291;DHT22;3178;48.730;8.990;2022-08-14T12:48:00;31.60;45.50
6291;DHT22;3178;48.730;8.990;2022-08-14T12:50:40;31.70;46.60
6291;DHT22;3178;48.730;8.990;2022-08-14T12:53:08;31.50;44.00
6291;DHT22;3178;48.730;8.990;2022-08-14T12:55:37;31.30;44.50
6291;DHT22;3178;48.730;8.990;2022-08-14T12:58:05;31.20;44.60
6291;DHT22;3178;48.730;8.990;2022-08-14T13:00:34;31.20;45.10
6291;DHT22;3178;48.730;8.990;2022-08-14T13:03:00;31.40;46.30
6291;DHT22;3178;48.730;8.990;2022-08-14T13:05:28;31.50;45.20
6291;DHT22;3178;48.730;8.990;2022-08-14T13:07:55;31.60;46.10
6291;DHT22;3178;48.730;8.990;2022-08-14T13:10:22;31.70;46.00
6291;DHT22;3178;48.730;8.990;2022-08-14T13:12:50;31.70;45.10
6291;DHT22;3178;48.730;8.990;2022-08-14T13:15:16;31.90;45.30
6291;DHT22;3178;48.730;8.990;2022-08-14T13:17:49;32.00;44.30
6291;DHT22;3178;48.730;8.990;2022-08-14T13:20:20;31.90;43.80
6291;DHT22;3178;48.730;8.990;2022-08-14T13:22:46;31.90;47.40
6291;DHT22;3178;48.730;8.990;2022-08-14T13:25:17;31.80;43.60
6291;DHT22;3178;48.730;8.990;2022-08-14T13:27:45;31.70;43.20
6291;DHT22;3178;48.730;8.990;2022-08-14T13:30:11;31.60;44.70
6291;DHT22;3178;48.730;8.990;2022-08-14T13:32:38;31.50;41.80
6291;DHT22;3178;48.730;8.990;2022-08-14T13:35:08;31.40;42.60
6291;DHT22;3178;48.730;8.990;2022-08-14T13:37:35;31.30;42.80
6291;DHT22;3178;48.730;8.990;2022-08-14T13:40:03;31.30;43.20
6291;DHT22;3178;48.730;8.990;2022-08-14T13:42:29;31.20;42.10
6291;DHT22;3178;48.730;8.990;2022-08-14T13:44:56;31.10;42.50
6291;DHT22;3178;48.730;8.990;2022-08-14T13:47:24;31.10;41.50
6291;DHT22;3178;48.730;8.990;2022-08-14T13:49:56;31.20;42.80
6291;DHT22;3178;48.730;8.990;2022-08-14T13:52:45;31.30;42.50
6291;DHT22;3178;48.730;8.990;2022-08-14T13:55:24;31.40;42.60
6291;DHT22;3178;48.730;8.990;2022-08-14T13:57:50;31.30;39.70
6291;DHT22;3178;48.730;8.990;2022-08-14T14:00:16;31.40;42.60
6291;DHT22;3178;48.730;8.990;2022-08-14T14:02:45;31.60;44.00
6291;DHT22;3178;48.730;8.990;2022-08-14T14:05:16;31.80;42.50
6291;DHT22;3178;48.730;8.990;2022-08-14T14:07:48;31.90;43.40
6291;DHT22;3178;48.730;8.990;2022-08-14T14:10:16;32.10;42.90
6291;DHT22;3178;48.730;8.990;2022-08-14T14:12:42;32.00;42.30
6291;DHT22;3178;48.730;8.990;2022-08-14T14:15:14;32.00;43.40
6291;DHT22;3178;48.730;8.990;2022-08-14T14:17:41;31.90;41.00
6291;DHT22;3178;48.730;8.990;2022-08-14T14:20:10;32.10;43.20
6291;DHT22;3178;48.730;8.990;2022-08-14T14:22:42;32.10;41.60
6291;DHT22;3178;48.730;8.990;2022-08-14T14:25:13;32.20;42.60
6291;DHT22;3178;48.730;8.990;2022-08-14T14:27:42;32.30;42.30
6291;DHT22;3178;48.730;8.990;2022-08-14T14:30:10;32.40;41.80
6291;DHT22;3178;48.730;8.990;2022-08-14T14:32:38;32.30;42.60
6291;DHT22;3178;48.730;8.990;2022-08-14T14:35:10;32.30;39.90
6291;DHT22;3178;48.730;8.990;2022-08-14T14:37:38;32.30;42.10
6291;DHT22;3178;48.730;8.990;2022-08-14T14:40:04;32.40;42.70
6291;DHT22;3178;48.730;8.990;2022-08-14T14:42:31;32.40;41.50
6291;DHT22;3178;48.730;8.990;2022-08-14T14:45:10;32.30;41.70
6291;DHT22;3178;48.730;8.990;2022-08-14T14:47:42;32.20;42.40
6291;DHT22;3178;48.730;8.990;2022-08-14T14:50:09;32.00;40.60
6291;DHT22;3178;48.730;8.990;2022-08-14T14:52:36;31.70;41.10
6291;DHT22;3178;48.730;8.990;2022-08-14T14:55:02;31.70;42.20
6291;DHT22;3178;48.730;8.990;2022-08-14T14:57:29;31.50;41.10
6291;DHT22;3178;48.730;8.990;2022-08-14T14:59:55;31.50;41.90
6291;DHT22;3178;48.730;8.990;2022-08-14T15:02:36;31.40;41.10
6291;DHT22;3178;48.730;8.990;2022-08-14T15:05:06;31.40;41.80
6291;DHT22;3178;48.730;8.990;2022-08-14T15:07:32;31.40;41.20
6291;DHT22;3178;48.730;8.990;2022-08-14T15:09:58;31.30;42.10
6291;DHT22;3178;48.730;8.990;2022-08-14T15:12:24;31.40;41.80
6291;DHT22;3178;48.730;8.990;2022-08-14T15:14:50;31.20;40.60
6291;DHT22;3178;48.730;8.990;2022-08-14T15:17:15;31.20;43.20
6291;DHT22;3178;48.730;8.990;2022-08-14T15:19:41;31.20;42.10
6291;DHT22;3178;48.730;8.990;2022-08-14T15:22:07;31.10;43.40
6291;DHT22;3178;48.730;8.990;2022-08-14T15:24:33;31.10;44.90
6291;DHT22;3178;48.730;8.990;2022-08-14T15:27:00;31.00;45.20
6291;DHT22;3178;48.730;8.990;2022-08-14T15:29:31;31.10;45.10
6291;DHT22;3178;48.730;8.990;2022-08-14T15:32:03;31.00;43.80
6291;DHT22;3178;48.730;8.990;2022-08-14T15:34:30;31.00;46.10
6291;DHT22;3178;48.730;8.990;2022-08-14T15:36:55;30.90;46.50
6291;DHT22;3178;48.730;8.990;2022-08-14T15:39:21;30.80;45.20
6291;DHT22;3178;48.730;8.990;2022-08-14T15:41:46;30.70;44.40
6291;DHT22;3178;48.730;8.990;2022-08-14T15:44:13;30.70;46.10
6291;DHT22;3178;48.730;8.990;2022-08-14T15:46:38;30.50;44.80
6291;DHT22;3178;48.730;8.990;2022-08-14T15:49:04;30.40;45.00
6291;DHT22;3178;48.730;8.990;2022-08-14T15:51:32;30.30;44.80
6291;DHT22;3178;48.730;8.990;2022-08-14T15:53:58;30.30;44.70
6291;DHT22;3178;48.730;8.990;2022-08-14T15:56:23;30.30;45.00
6291;DHT22;3178;48.730;8.990;2022-08-14T15:58:49;30.20;44.60
6291;DHT22;3178;48.730;8.990;2022-08-14T16:01:15;30.20;46.30
6291;DHT22;3178;48.730;8.990;2022-08-14T16:03:49;30.20;46.60
6291;DHT22;3178;48.730;8.990;2022-08-14T16:06:18;30.20;46.90
6291;DHT22;3178;48.730;8.990;2022-08-14T16:08:46;30.10;45.40
6291;DHT22;3178;48.730;8.990;2022-08-14T16:11:13;30.00;45.80
6291;DHT22;3178;48.730;8.990;2022-08-14T16:13:40;29.90;46.00
6291;DHT22;3178;48.730;8.990;2022-08-14T16:16:22;29.80;45.70
6291;DHT22;3178;48.730;8.990;2022-08-14T16:18:48;29.80;45.90
6291;DHT22;3178;48.730;8.990;2022-08-14T16:21:20;29.70;47.50
6291;DHT22;3178;48.730;8.990;2022-08-14T16:23:46;29.60;46.60
6291;DHT22;3178;48.730;8.990;2022-08-14T16:26:14;29.60;47.60
6291;DHT22;3178;48.730;8.990;2022-08-14T16:28:42;29.50;47.90
6291;DHT22;3178;48.730;8.990;2022-08-14T16:31:08;29.40;47.80
6291;DHT22;3178;48.730;8.990;2022-08-14T16:33:34;29.40;49.00
6291;DHT22;3178;48.730;8.990;2022-08-14T16:36:02;29.30;48.20
6291;DHT22;3178;48.730;8.990;2022-08-14T16:38:28;29.30;49.20